Terminal Aerodrome Forecast
Issued by NWS Bismarck, ND

Home | Current Version | Previous Version | Graphics & Text | Print | Product List | Glossary On
Versions: 1 2 3 4 5 6 7 8 9 10 11 12 13 14 15 16 17
000
FTUS43 KBIS 260900 AAA
TAFBIS
TAF AMD
KBIS 260920Z 2609/2706 35009KT P6SM OVC013
      TEMPO 2612/2616 -SHSN SCT015 OVC025
     FM261600 33008KT P6SM BKN025 OVC035
     FM261800 32006KT P6SM SCT030 SCT220
     FM270000 VRB03KT P6SM SCT050=

USA.gov is the U.S. government's official web portal to all federal, state and local government web resources and services.